sensor_id;sensor_type;location;lat;lon;timestamp;pressure;altitude;pressure_sealevel;temperature;humidity
9695;BME280;4690;52.422;13.486;2022-12-17T00:04:19;101830.81;;;0.38;78.56
9695;BME280;4690;52.422;13.486;2022-12-17T00:07:10;101849.31;;;0.43;78.82
9695;BME280;4690;52.422;13.486;2022-12-17T00:09:57;101842.91;;;0.44;78.14
9695;BME280;4690;52.422;13.486;2022-12-17T00:12:41;101845.88;;;0.41;78.18
9695;BME280;4690;52.422;13.486;2022-12-17T00:15:25;101849.41;;;0.41;77.91
9695;BME280;4690;52.422;13.486;2022-12-17T00:18:10;101847.72;;;0.40;78.66
9695;BME280;4690;52.422;13.486;2022-12-17T00:20:57;101854.69;;;0.43;78.74
9695;BME280;4690;52.422;13.486;2022-12-17T00:23:42;101855.41;;;0.45;78.54
9695;BME280;4690;52.422;13.486;2022-12-17T00:26:27;101861.78;;;0.44;78.94
9695;BME280;4690;52.422;13.486;2022-12-17T00:29:27;101860.09;;;0.43;78.82
9695;BME280;4690;52.422;13.486;2022-12-17T00:32:12;101877.97;;;0.44;78.01
9695;BME280;4690;52.422;13.486;2022-12-17T00:34:56;101874.09;;;0.37;79.12
9695;BME280;4690;52.422;13.486;2022-12-17T00:37:40;101871.53;;;0.35;79.06
9695;BME280;4690;52.422;13.486;2022-12-17T00:40:24;101877.66;;;0.37;78.38
9695;BME280;4690;52.422;13.486;2022-12-17T00:43:12;101882.44;;;0.34;78.71
9695;BME280;4690;52.422;13.486;2022-12-17T00:45:57;101872.91;;;0.30;78.77
9695;BME280;4690;52.422;13.486;2022-12-17T00:48:42;101887.81;;;0.34;79.56
9695;BME280;4690;52.422;13.486;2022-12-17T00:51:26;101890.78;;;0.31;79.10
9695;BME280;4690;52.422;13.486;2022-12-17T00:54:12;101895.53;;;0.17;79.52
9695;BME280;4690;52.422;13.486;2022-12-17T00:56:56;101888.63;;;0.25;80.29
9695;BME280;4690;52.422;13.486;2022-12-17T00:59:40;101886.13;;;0.33;79.83
9695;BME280;4690;52.422;13.486;2022-12-17T01:02:24;101898.09;;;0.40;79.51
9695;BME280;4690;52.422;13.486;2022-12-17T01:05:10;101887.75;;;0.45;80.02
9695;BME280;4690;52.422;13.486;2022-12-17T01:07:56;101896.44;;;0.49;79.58
9695;BME280;4690;52.422;13.486;2022-12-17T01:10:44;101896.03;;;0.53;79.55
9695;BME280;4690;52.422;13.486;2022-12-17T01:13:28;101898.47;;;0.56;78.96
9695;BME280;4690;52.422;13.486;2022-12-17T01:16:13;101905.31;;;0.60;79.04
9695;BME280;4690;52.422;13.486;2022-12-17T01:18:59;101909.59;;;0.63;79.12
9695;BME280;4690;52.422;13.486;2022-12-17T01:21:45;101909.31;;;0.66;78.59
9695;BME280;4690;52.422;13.486;2022-12-17T01:24:29;101917.16;;;0.69;78.63
9695;BME280;4690;52.422;13.486;2022-12-17T01:27:14;101917.03;;;0.71;78.52
9695;BME280;4690;52.422;13.486;2022-12-17T01:29:59;101917.88;;;0.71;78.76
9695;BME280;4690;52.422;13.486;2022-12-17T01:32:43;101920.41;;;0.73;78.43
9695;BME280;4690;52.422;13.486;2022-12-17T01:35:28;101921.16;;;0.75;78.96
9695;BME280;4690;52.422;13.486;2022-12-17T01:38:15;101923.13;;;0.73;78.31
9695;BME280;4690;52.422;13.486;2022-12-17T01:41:01;101918.72;;;0.72;79.02
9695;BME280;4690;52.422;13.486;2022-12-17T01:43:46;101912.31;;;0.73;78.97
9695;BME280;4690;52.422;13.486;2022-12-17T01:46:45;101907.78;;;0.73;79.29
9695;BME280;4690;52.422;13.486;2022-12-17T01:49:32;101914.75;;;0.76;79.23
9695;BME280;4690;52.422;13.486;2022-12-17T01:52:16;101912.94;;;0.76;78.97
9695;BME280;4690;52.422;13.486;2022-12-17T01:55:04;101912.78;;;0.78;78.86
9695;BME280;4690;52.422;13.486;2022-12-17T01:57:49;101921.63;;;0.80;78.97
9695;BME280;4690;52.422;13.486;2022-12-17T02:00:34;101925.03;;;0.82;78.97
9695;BME280;4690;52.422;13.486;2022-12-17T02:03:18;101920.75;;;0.79;78.80
9695;BME280;4690;52.422;13.486;2022-12-17T02:06:21;101926.28;;;0.78;78.93
9695;BME280;4690;52.422;13.486;2022-12-17T02:09:41;101929.25;;;0.75;78.53
9695;BME280;4690;52.422;13.486;2022-12-17T02:12:41;101936.22;;;0.77;79.02
9695;BME280;4690;52.422;13.486;2022-12-17T02:15:42;101932.69;;;0.77;78.85
9695;BME280;4690;52.422;13.486;2022-12-17T02:18:37;101925.16;;;0.80;79.09
9695;BME280;4690;52.422;13.486;2022-12-17T02:21:25;101928.44;;;0.84;79.62
9695;BME280;4690;52.422;13.486;2022-12-17T02:27:13;101926.19;;;0.89;78.63
9695;BME280;4690;52.422;13.486;2022-12-17T02:30:05;101918.94;;;0.89;79.28
9695;BME280;4690;52.422;13.486;2022-12-17T02:32:51;101916.25;;;0.89;79.55
9695;BME280;4690;52.422;13.486;2022-12-17T02:35:50;101915.41;;;0.89;79.12
9695;BME280;4690;52.422;13.486;2022-12-17T02:38:36;101927.03;;;0.89;79.66
9695;BME280;4690;52.422;13.486;2022-12-17T02:41:39;101926.59;;;0.84;78.83
9695;BME280;4690;52.422;13.486;2022-12-17T02:44:25;101942.66;;;0.86;79.07
9695;BME280;4690;52.422;13.486;2022-12-17T02:47:12;101932.59;;;0.88;79.09
9695;BME280;4690;52.422;13.486;2022-12-17T02:49:57;101942.38;;;0.89;79.18
9695;BME280;4690;52.422;13.486;2022-12-17T02:52:46;101946.09;;;0.88;79.94
9695;BME280;4690;52.422;13.486;2022-12-17T02:55:33;101950.03;;;0.84;79.22
9695;BME280;4690;52.422;13.486;2022-12-17T02:58:18;101943.72;;;0.74;80.46
9695;BME280;4690;52.422;13.486;2022-12-17T03:01:03;101954.38;;;0.75;80.54
9695;BME280;4690;52.422;13.486;2022-12-17T03:03:47;101949.44;;;0.80;80.28
9695;BME280;4690;52.422;13.486;2022-12-17T03:06:33;101958.84;;;0.86;80.27
9695;BME280;4690;52.422;13.486;2022-12-17T03:09:18;101953.00;;;0.81;79.59
9695;BME280;4690;52.422;13.486;2022-12-17T03:12:02;101963.78;;;0.81;80.02
9695;BME280;4690;52.422;13.486;2022-12-17T03:14:49;101964.19;;;0.76;79.75
9695;BME280;4690;52.422;13.486;2022-12-17T03:17:34;101964.31;;;0.75;79.84
9695;BME280;4690;52.422;13.486;2022-12-17T03:20:18;101963.31;;;0.76;79.94
9695;BME280;4690;52.422;13.486;2022-12-17T03:23:09;101968.97;;;0.73;80.24
9695;BME280;4690;52.422;13.486;2022-12-17T03:25:59;101966.47;;;0.81;80.28
9695;BME280;4690;52.422;13.486;2022-12-17T03:28:44;101962.47;;;0.75;79.81
9695;BME280;4690;52.422;13.486;2022-12-17T03:31:29;101968.78;;;0.64;79.93
9695;BME280;4690;52.422;13.486;2022-12-17T03:34:13;101970.81;;;0.72;80.74
9695;BME280;4690;52.422;13.486;2022-12-17T03:36:57;101972.41;;;0.75;80.57
9695;BME280;4690;52.422;13.486;2022-12-17T03:39:42;101974.84;;;0.78;80.78
9695;BME280;4690;52.422;13.486;2022-12-17T03:42:26;101978.13;;;0.81;80.19
9695;BME280;4690;52.422;13.486;2022-12-17T03:45:10;101974.03;;;0.87;80.14
9695;BME280;4690;52.422;13.486;2022-12-17T03:48:10;101977.28;;;0.81;79.80
9695;BME280;4690;52.422;13.486;2022-12-17T03:50:56;101985.63;;;0.78;79.92
9695;BME280;4690;52.422;13.486;2022-12-17T03:53:41;101988.31;;;0.78;80.67
9695;BME280;4690;52.422;13.486;2022-12-17T03:56:26;101995.44;;;0.79;80.61
9695;BME280;4690;52.422;13.486;2022-12-17T03:59:11;101998.44;;;0.64;80.05
9695;BME280;4690;52.422;13.486;2022-12-17T04:01:56;102000.66;;;0.71;80.13
9695;BME280;4690;52.422;13.486;2022-12-17T04:04:40;101991.94;;;0.67;80.53
9695;BME280;4690;52.422;13.486;2022-12-17T04:07:25;102002.69;;;0.57;80.80
9695;BME280;4690;52.422;13.486;2022-12-17T04:10:10;102007.34;;;0.55;81.36
9695;BME280;4690;52.422;13.486;2022-12-17T04:12:54;102007.66;;;0.62;81.11
9695;BME280;4690;52.422;13.486;2022-12-17T04:15:39;102010.50;;;0.60;80.49
9695;BME280;4690;52.422;13.486;2022-12-17T04:18:23;102027.69;;;0.59;80.42
9695;BME280;4690;52.422;13.486;2022-12-17T04:21:07;102027.41;;;0.62;81.21
9695;BME280;4690;52.422;13.486;2022-12-17T04:23:52;102032.56;;;0.65;80.96
9695;BME280;4690;52.422;13.486;2022-12-17T04:26:36;102036.38;;;0.63;81.06
9695;BME280;4690;52.422;13.486;2022-12-17T04:29:20;102042.59;;;0.63;81.05
9695;BME280;4690;52.422;13.486;2022-12-17T04:32:05;102043.19;;;0.67;80.97
9695;BME280;4690;52.422;13.486;2022-12-17T04:34:49;102029.72;;;0.67;80.27
9695;BME280;4690;52.422;13.486;2022-12-17T04:37:33;102033.53;;;0.64;80.95
9695;BME280;4690;52.422;13.486;2022-12-17T04:40:18;102029.84;;;0.65;81.09
9695;BME280;4690;52.422;13.486;2022-12-17T04:43:11;102038.22;;;0.62;81.19
9695;BME280;4690;52.422;13.486;2022-12-17T04:46:15;102035.94;;;0.67;80.96
9695;BME280;4690;52.422;13.486;2022-12-17T04:49:00;102043.34;;;0.65;80.30
9695;BME280;4690;52.422;13.486;2022-12-17T04:51:44;102046.22;;;0.53;79.99
9695;BME280;4690;52.422;13.486;2022-12-17T04:54:28;102047.69;;;0.57;80.08
9695;BME280;4690;52.422;13.486;2022-12-17T04:57:12;102046.69;;;0.58;80.10
9695;BME280;4690;52.422;13.486;2022-12-17T04:59:57;102059.16;;;0.59;80.02
9695;BME280;4690;52.422;13.486;2022-12-17T05:02:41;102053.88;;;0.36;81.22
9695;BME280;4690;52.422;13.486;2022-12-17T05:05:25;102054.00;;;0.35;80.75
9695;BME280;4690;52.422;13.486;2022-12-17T05:08:09;102050.19;;;0.37;81.80
9695;BME280;4690;52.422;13.486;2022-12-17T05:10:53;102048.34;;;0.38;80.64
9695;BME280;4690;52.422;13.486;2022-12-17T05:13:38;102059.88;;;0.40;81.05
9695;BME280;4690;52.422;13.486;2022-12-17T05:16:22;102058.66;;;0.33;80.81
9695;BME280;4690;52.422;13.486;2022-12-17T05:19:06;102065.41;;;0.27;81.45
9695;BME280;4690;52.422;13.486;2022-12-17T05:21:50;102066.91;;;0.31;81.31
9695;BME280;4690;52.422;13.486;2022-12-17T05:24:34;102064.19;;;0.31;81.34
9695;BME280;4690;52.422;13.486;2022-12-17T05:27:18;102074.59;;;0.36;81.03
9695;BME280;4690;52.422;13.486;2022-12-17T05:30:03;102079.59;;;0.40;80.59
9695;BME280;4690;52.422;13.486;2022-12-17T05:33:00;102085.72;;;0.42;81.11
9695;BME280;4690;52.422;13.486;2022-12-17T05:35:45;102080.97;;;0.35;80.26
9695;BME280;4690;52.422;13.486;2022-12-17T05:38:29;102093.09;;;0.40;80.39
9695;BME280;4690;52.422;13.486;2022-12-17T05:41:14;102090.13;;;0.43;80.48
9695;BME280;4690;52.422;13.486;2022-12-17T05:43:58;102096.38;;;0.44;80.34
9695;BME280;4690;52.422;13.486;2022-12-17T05:46:42;102096.16;;;0.36;80.76
9695;BME280;4690;52.422;13.486;2022-12-17T05:49:26;102104.63;;;0.31;79.98
9695;BME280;4690;52.422;13.486;2022-12-17T05:52:10;102101.53;;;0.36;80.07
9695;BME280;4690;52.422;13.486;2022-12-17T05:54:55;102105.09;;;0.36;79.87
9695;BME280;4690;52.422;13.486;2022-12-17T05:57:39;102114.28;;;0.34;80.39
9695;BME280;4690;52.422;13.486;2022-12-17T06:00:23;102113.84;;;0.29;80.10
9695;BME280;4690;52.422;13.486;2022-12-17T06:03:08;102118.56;;;0.36;80.30
9695;BME280;4690;52.422;13.486;2022-12-17T06:05:54;102118.94;;;0.43;79.98
9695;BME280;4690;52.422;13.486;2022-12-17T06:08:39;102122.13;;;0.48;80.81
9695;BME280;4690;52.422;13.486;2022-12-17T06:11:24;102120.28;;;0.49;80.63
9695;BME280;4690;52.422;13.486;2022-12-17T06:14:08;102127.25;;;0.51;80.50
9695;BME280;4690;52.422;13.486;2022-12-17T06:16:54;102130.22;;;0.48;80.57
9695;BME280;4690;52.422;13.486;2022-12-17T06:19:38;102132.28;;;0.44;79.76
9695;BME280;4690;52.422;13.486;2022-12-17T06:22:22;102143.06;;;0.44;80.51
9695;BME280;4690;52.422;13.486;2022-12-17T06:25:06;102146.75;;;0.43;80.60
9695;BME280;4690;52.422;13.486;2022-12-17T06:28:01;102138.31;;;0.48;80.80
9695;BME280;4690;52.422;13.486;2022-12-17T06:30:53;102137.31;;;0.49;79.87
9695;BME280;4690;52.422;13.486;2022-12-17T06:33:39;102140.25;;;0.46;80.14
9695;BME280;4690;52.422;13.486;2022-12-17T06:36:23;102150.34;;;0.33;79.63
9695;BME280;4690;52.422;13.486;2022-12-17T06:39:08;102159.28;;;0.33;80.65
9695;BME280;4690;52.422;13.486;2022-12-17T06:41:53;102158.31;;;0.34;80.56
9695;BME280;4690;52.422;13.486;2022-12-17T06:44:38;102159.66;;;0.40;80.14
9695;BME280;4690;52.422;13.486;2022-12-17T06:47:42;102161.84;;;0.46;79.57
9695;BME280;4690;52.422;13.486;2022-12-17T06:50:26;102163.28;;;0.50;79.97
9695;BME280;4690;52.422;13.486;2022-12-17T06:53:16;102171.16;;;0.31;79.66
9695;BME280;4690;52.422;13.486;2022-12-17T06:56:00;102185.28;;;0.23;80.34
9695;BME280;4690;52.422;13.486;2022-12-17T06:58:45;102189.78;;;0.22;80.16
9695;BME280;4690;52.422;13.486;2022-12-17T07:01:29;102195.56;;;0.18;81.19
9695;BME280;4690;52.422;13.486;2022-12-17T07:04:13;102200.47;;;0.24;80.25
9695;BME280;4690;52.422;13.486;2022-12-17T07:06:57;102199.47;;;0.36;80.80
9695;BME280;4690;52.422;13.486;2022-12-17T07:09:43;102209.38;;;0.47;80.15
9695;BME280;4690;52.422;13.486;2022-12-17T07:12:27;102217.72;;;0.44;79.73
9695;BME280;4690;52.422;13.486;2022-12-17T07:15:12;102215.19;;;0.31;79.54
9695;BME280;4690;52.422;13.486;2022-12-17T07:18:03;102230.22;;;0.34;79.24
9695;BME280;4690;52.422;13.486;2022-12-17T07:20:51;102236.84;;;0.30;79.26
9695;BME280;4690;52.422;13.486;2022-12-17T07:23:55;102233.91;;;0.33;78.76
9695;BME280;4690;52.422;13.486;2022-12-17T07:26:40;102241.25;;;0.42;79.29
9695;BME280;4690;52.422;13.486;2022-12-17T07:29:24;102251.06;;;0.43;78.28
9695;BME280;4690;52.422;13.486;2022-12-17T07:32:08;102253.03;;;0.41;77.77
9695;BME280;4690;52.422;13.486;2022-12-17T07:35:07;102243.59;;;0.35;78.00
9695;BME280;4690;52.422;13.486;2022-12-17T07:38:00;102253.28;;;0.38;78.04
9695;BME280;4690;52.422;13.486;2022-12-17T07:40:45;102254.72;;;0.42;77.73
9695;BME280;4690;52.422;13.486;2022-12-17T07:43:29;102257.19;;;0.45;78.18
9695;BME280;4690;52.422;13.486;2022-12-17T07:46:14;102258.91;;;0.46;77.79
9695;BME280;4690;52.422;13.486;2022-12-17T07:48:58;102256.31;;;0.44;77.78
9695;BME280;4690;52.422;13.486;2022-12-17T07:51:42;102265.66;;;0.40;78.04
9695;BME280;4690;52.422;13.486;2022-12-17T07:54:27;102262.97;;;0.40;77.81
9695;BME280;4690;52.422;13.486;2022-12-17T07:57:11;102259.88;;;0.45;77.65
9695;BME280;4690;52.422;13.486;2022-12-17T07:59:56;102281.34;;;0.47;77.90
9695;BME280;4690;52.422;13.486;2022-12-17T08:02:40;102281.22;;;0.48;77.87
9695;BME280;4690;52.422;13.486;2022-12-17T08:05:25;102284.88;;;0.58;77.05
9695;BME280;4690;52.422;13.486;2022-12-17T08:08:11;102284.63;;;0.61;76.80
9695;BME280;4690;52.422;13.486;2022-12-17T08:10:57;102290.28;;;0.58;77.21
9695;BME280;4690;52.422;13.486;2022-12-17T08:13:41;102291.13;;;0.48;77.55
9695;BME280;4690;52.422;13.486;2022-12-17T08:16:26;102288.94;;;0.53;77.35
9695;BME280;4690;52.422;13.486;2022-12-17T08:19:11;102294.22;;;0.54;76.98
9695;BME280;4690;52.422;13.486;2022-12-17T08:21:55;102296.41;;;0.60;76.98
9695;BME280;4690;52.422;13.486;2022-12-17T08:24:39;102295.69;;;0.58;77.39
9695;BME280;4690;52.422;13.486;2022-12-17T08:27:23;102294.56;;;0.61;77.58
9695;BME280;4690;52.422;13.486;2022-12-17T08:30:08;102292.88;;;0.60;76.88
9695;BME280;4690;52.422;13.486;2022-12-17T08:32:53;102296.06;;;0.65;77.17
9695;BME280;4690;52.422;13.486;2022-12-17T08:35:37;102296.91;;;0.54;77.32
9695;BME280;4690;52.422;13.486;2022-12-17T08:38:21;102300.31;;;0.45;77.38
9695;BME280;4690;52.422;13.486;2022-12-17T08:41:05;102309.16;;;0.36;77.47
9695;BME280;4690;52.422;13.486;2022-12-17T08:43:49;102313.69;;;0.35;77.28
9695;BME280;4690;52.422;13.486;2022-12-17T08:46:34;102310.00;;;0.48;76.88
9695;BME280;4690;52.422;13.486;2022-12-17T08:49:18;102308.06;;;0.50;77.00
9695;BME280;4690;52.422;13.486;2022-12-17T08:52:02;102318.59;;;0.53;76.70
9695;BME280;4690;52.422;13.486;2022-12-17T08:54:47;102315.16;;;0.62;77.54
9695;BME280;4690;52.422;13.486;2022-12-17T08:57:31;102318.50;;;0.65;77.42
9695;BME280;4690;52.422;13.486;2022-12-17T09:00:15;102325.84;;;0.63;77.18
9695;BME280;4690;52.422;13.486;2022-12-17T09:03:01;102331.34;;;0.51;76.50
9695;BME280;4690;52.422;13.486;2022-12-17T09:05:46;102333.81;;;0.54;76.82
9695;BME280;4690;52.422;13.486;2022-12-17T09:08:31;102334.44;;;0.69;75.86
9695;BME280;4690;52.422;13.486;2022-12-17T09:11:16;102339.31;;;0.75;75.31
9695;BME280;4690;52.422;13.486;2022-12-17T09:14:00;102341.78;;;0.78;75.38
9695;BME280;4690;52.422;13.486;2022-12-17T09:16:45;102339.91;;;0.89;75.49
9695;BME280;4690;52.422;13.486;2022-12-17T09:19:29;102338.97;;;0.91;75.63
9695;BME280;4690;52.422;13.486;2022-12-17T09:22:13;102346.66;;;0.95;76.02
9695;BME280;4690;52.422;13.486;2022-12-17T09:24:57;102335.16;;;0.93;74.99
9695;BME280;4690;52.422;13.486;2022-12-17T09:27:42;102338.31;;;0.87;75.22
9695;BME280;4690;52.422;13.486;2022-12-17T09:30:26;102330.97;;;0.78;75.66
9695;BME280;4690;52.422;13.486;2022-12-17T09:33:15;102336.88;;;0.83;75.87
9695;BME280;4690;52.422;13.486;2022-12-17T09:36:05;102341.75;;;0.89;75.59
9695;BME280;4690;52.422;13.486;2022-12-17T09:38:49;102343.09;;;0.95;74.69
9695;BME280;4690;52.422;13.486;2022-12-17T09:50:45;102355.75;;;0.60;75.48
9695;BME280;4690;52.422;13.486;2022-12-17T09:53:48;102357.72;;;0.58;75.76
9695;BME280;4690;52.422;13.486;2022-12-17T09:56:36;102359.44;;;0.59;75.88
9695;BME280;4690;52.422;13.486;2022-12-17T09:59:26;102362.63;;;0.64;75.33
9695;BME280;4690;52.422;13.486;2022-12-17T10:02:16;102358.31;;;0.62;75.23
9695;BME280;4690;52.422;13.486;2022-12-17T10:05:08;102359.06;;;0.64;76.15
9695;BME280;4690;52.422;13.486;2022-12-17T10:07:57;102362.38;;;0.67;74.98
9695;BME280;4690;52.422;13.486;2022-12-17T10:10:45;102365.69;;;0.71;76.01
9695;BME280;4690;52.422;13.486;2022-12-17T10:13:29;102377.81;;;0.43;75.99
9695;BME280;4690;52.422;13.486;2022-12-17T10:16:38;102378.94;;;0.05;77.31
9695;BME280;4690;52.422;13.486;2022-12-17T10:19:34;102373.13;;;0.34;77.81
9695;BME280;4690;52.422;13.486;2022-12-17T10:22:21;102378.09;;;0.62;77.20
9695;BME280;4690;52.422;13.486;2022-12-17T10:25:14;102390.84;;;0.83;75.34
9695;BME280;4690;52.422;13.486;2022-12-17T10:28:04;102386.66;;;0.79;75.06
9695;BME280;4690;52.422;13.486;2022-12-17T10:30:48;102391.69;;;0.83;74.70
9695;BME280;4690;52.422;13.486;2022-12-17T10:33:38;102391.94;;;0.92;74.72
9695;BME280;4690;52.422;13.486;2022-12-17T10:36:25;102398.19;;;1.03;74.50
9695;BME280;4690;52.422;13.486;2022-12-17T10:39:23;102394.13;;;1.09;73.84
9695;BME280;4690;52.422;13.486;2022-12-17T10:48:28;102395.13;;;1.08;74.70
9695;BME280;4690;52.422;13.486;2022-12-17T10:51:32;102394.00;;;1.22;74.54
9695;BME280;4690;52.422;13.486;2022-12-17T10:54:29;102397.44;;;1.12;73.62
9695;BME280;4690;52.422;13.486;2022-12-17T10:57:35;102396.72;;;1.10;72.67
9695;BME280;4690;52.422;13.486;2022-12-17T11:00:33;102408.13;;;1.03;73.53
9695;BME280;4690;52.422;13.486;2022-12-17T11:03:50;102418.69;;;0.83;74.00
9695;BME280;4690;52.422;13.486;2022-12-17T11:06:50;102411.78;;;0.57;73.90
9695;BME280;4690;52.422;13.486;2022-12-17T11:09:48;102419.00;;;0.67;75.10
9695;BME280;4690;52.422;13.486;2022-12-17T11:13:07;102412.28;;;0.73;73.98
9695;BME280;4690;52.422;13.486;2022-12-17T11:15:56;102412.16;;;0.63;74.46
9695;BME280;4690;52.422;13.486;2022-12-17T11:21:52;102411.84;;;-0.14;77.80
9695;BME280;4690;52.422;13.486;2022-12-17T11:24:58;102425.44;;;0.20;78.53
9695;BME280;4690;52.422;13.486;2022-12-17T11:28:21;102419.22;;;0.42;76.61
9695;BME280;4690;52.422;13.486;2022-12-17T11:37:32;102438.59;;;0.47;76.14
9695;BME280;4690;52.422;13.486;2022-12-17T11:46:36;102434.97;;;0.59;76.24
9695;BME280;4690;52.422;13.486;2022-12-17T12:06:22;102442.38;;;1.02;74.44
9695;BME280;4690;52.422;13.486;2022-12-17T12:09:35;102442.97;;;1.06;73.92
9695;BME280;4690;52.422;13.486;2022-12-17T12:12:56;102444.56;;;0.86;74.21
9695;BME280;4690;52.422;13.486;2022-12-17T12:16:15;102449.06;;;0.63;74.85
9695;BME280;4690;52.422;13.486;2022-12-17T12:19:29;102444.91;;;0.70;75.08
9695;BME280;4690;52.422;13.486;2022-12-17T12:23:34;102449.34;;;0.71;75.07
9695;BME280;4690;52.422;13.486;2022-12-17T12:26:39;102452.84;;;0.49;75.61
9695;BME280;4690;52.422;13.486;2022-12-17T12:30:07;102459.97;;;0.61;75.30
9695;BME280;4690;52.422;13.486;2022-12-17T12:36:10;102478.09;;;0.48;75.20
9695;BME280;4690;52.422;13.486;2022-12-17T12:38:59;102478.56;;;0.42;75.26
9695;BME280;4690;52.422;13.486;2022-12-17T12:42:01;102471.47;;;0.52;75.00
9695;BME280;4690;52.422;13.486;2022-12-17T12:48:05;102485.75;;;0.65;75.56
9695;BME280;4690;52.422;13.486;2022-12-17T12:51:19;102488.41;;;0.54;74.98
9695;BME280;4690;52.422;13.486;2022-12-17T12:57:36;102496.28;;;-0.02;77.08
9695;BME280;4690;52.422;13.486;2022-12-17T13:06:54;102506.97;;;0.35;77.59
9695;BME280;4690;52.422;13.486;2022-12-17T13:09:36;102501.69;;;0.33;76.74
9695;BME280;4690;52.422;13.486;2022-12-17T13:17:43;102499.88;;;0.45;76.65
9695;BME280;4690;52.422;13.486;2022-12-17T13:20:30;102503.25;;;0.25;77.16
9695;BME280;4690;52.422;13.486;2022-12-17T13:23:28;102511.50;;;0.34;77.14
9695;BME280;4690;52.422;13.486;2022-12-17T13:26:48;102500.03;;;0.43;76.92
9695;BME280;4690;52.422;13.486;2022-12-17T13:29:30;102505.44;;;0.55;76.87
9695;BME280;4690;52.422;13.486;2022-12-17T13:32:10;102501.69;;;0.33;75.86
9695;BME280;4690;52.422;13.486;2022-12-17T13:35:03;102508.38;;;-0.08;77.54
9695;BME280;4690;52.422;13.486;2022-12-17T13:38:00;102510.50;;;0.00;78.91
9695;BME280;4690;52.422;13.486;2022-12-17T13:41:07;102527.75;;;0.21;77.65
9695;BME280;4690;52.422;13.486;2022-12-17T13:44:01;102516.28;;;0.07;78.30
9695;BME280;4690;52.422;13.486;2022-12-17T13:46:40;102521.69;;;-0.30;79.52
9695;BME280;4690;52.422;13.486;2022-12-17T13:49:23;102526.00;;;-0.28;80.06
9695;BME280;4690;52.422;13.486;2022-12-17T13:52:17;102530.44;;;-0.03;79.68
9695;BME280;4690;52.422;13.486;2022-12-17T13:54:43;102538.22;;;0.13;78.78
9695;BME280;4690;52.422;13.486;2022-12-17T13:57:19;102540.41;;;0.08;78.04
9695;BME280;4690;52.422;13.486;2022-12-17T13:59:59;102546.50;;;-0.01;78.26
9695;BME280;4690;52.422;13.486;2022-12-17T14:02:31;102554.94;;;-0.06;78.53
9695;BME280;4690;52.422;13.486;2022-12-17T14:05:03;102553.03;;;-0.16;78.70
9695;BME280;4690;52.422;13.486;2022-12-17T14:07:33;102551.72;;;-0.24;78.74
9695;BME280;4690;52.422;13.486;2022-12-17T14:09:59;102558.84;;;-0.22;78.74
9695;BME280;4690;52.422;13.486;2022-12-17T14:12:27;102558.72;;;-0.21;79.31
9695;BME280;4690;52.422;13.486;2022-12-17T14:15:02;102557.25;;;-0.38;79.34
9695;BME280;4690;52.422;13.486;2022-12-17T14:17:37;102569.41;;;-0.32;79.07
9695;BME280;4690;52.422;13.486;2022-12-17T14:20:12;102566.34;;;-0.15;78.85
9695;BME280;4690;52.422;13.486;2022-12-17T14:22:42;102565.28;;;-0.12;78.75
9695;BME280;4690;52.422;13.486;2022-12-17T14:25:37;102577.50;;;-0.19;79.26
9695;BME280;4690;52.422;13.486;2022-12-17T14:28:32;102578.53;;;-0.09;78.69
9695;BME280;4690;52.422;13.486;2022-12-17T14:31:27;102567.50;;;-0.06;78.30
9695;BME280;4690;52.422;13.486;2022-12-17T14:34:13;102572.03;;;-0.31;78.28
9695;BME280;4690;52.422;13.486;2022-12-17T14:36:42;102578.56;;;-0.22;78.91
9695;BME280;4690;52.422;13.486;2022-12-17T14:39:31;102573.28;;;-0.24;78.56
9695;BME280;4690;52.422;13.486;2022-12-17T14:42:07;102578.16;;;-0.41;78.98
9695;BME280;4690;52.422;13.486;2022-12-17T14:47:37;102571.19;;;-0.70;79.73
9695;BME280;4690;52.422;13.486;2022-12-17T14:52:51;102589.28;;;-0.72;81.76
9695;BME280;4690;52.422;13.486;2022-12-17T14:55:49;102595.53;;;-0.58;81.43
9695;BME280;4690;52.422;13.486;2022-12-17T14:58:20;102594.75;;;-0.35;80.91
9695;BME280;4690;52.422;13.486;2022-12-17T15:01:11;102607.44;;;-0.37;79.85
9695;BME280;4690;52.422;13.486;2022-12-17T15:03:41;102601.97;;;-0.48;80.09
9695;BME280;4690;52.422;13.486;2022-12-17T15:06:10;102603.91;;;-0.63;80.08
9695;BME280;4690;52.422;13.486;2022-12-17T15:08:46;102601.84;;;-0.59;80.31
9695;BME280;4690;52.422;13.486;2022-12-17T15:11:17;102610.47;;;-0.93;81.53
9695;BME280;4690;52.422;13.486;2022-12-17T15:13:44;102609.28;;;-0.88;82.21
9695;BME280;4690;52.422;13.486;2022-12-17T15:16:11;102613.19;;;-0.93;81.56
9695;BME280;4690;52.422;13.486;2022-12-17T15:18:37;102615.13;;;-0.69;81.53
9695;BME280;4690;52.422;13.486;2022-12-17T15:21:04;102609.31;;;-0.63;81.70
9695;BME280;4690;52.422;13.486;2022-12-17T15:23:30;102611.13;;;-0.63;80.96
9695;BME280;4690;52.422;13.486;2022-12-17T15:25:56;102608.88;;;-0.57;80.91
9695;BME280;4690;52.422;13.486;2022-12-17T15:28:22;102620.59;;;-0.83;80.93
9695;BME280;4690;52.422;13.486;2022-12-17T15:30:49;102623.38;;;-0.85;81.44
9695;BME280;4690;52.422;13.486;2022-12-17T15:33:15;102628.03;;;-0.87;81.21
9695;BME280;4690;52.422;13.486;2022-12-17T15:35:42;102633.56;;;-1.16;82.13
9695;BME280;4690;52.422;13.486;2022-12-17T15:38:08;102646.53;;;-0.95;82.38
9695;BME280;4690;52.422;13.486;2022-12-17T15:40:36;102640.81;;;-0.91;82.13
9695;BME280;4690;52.422;13.486;2022-12-17T15:43:02;102643.06;;;-0.97;81.92
9695;BME280;4690;52.422;13.486;2022-12-17T15:45:38;102657.84;;;-0.90;81.63
9695;BME280;4690;52.422;13.486;2022-12-17T15:48:05;102651.63;;;-0.78;81.72
9695;BME280;4690;52.422;13.486;2022-12-17T15:50:30;102645.25;;;-0.77;80.80
9695;BME280;4690;52.422;13.486;2022-12-17T15:52:56;102644.94;;;-0.72;80.98
9695;BME280;4690;52.422;13.486;2022-12-17T15:55:22;102650.75;;;-0.65;81.06
9695;BME280;4690;52.422;13.486;2022-12-17T15:57:48;102645.38;;;-0.65;80.70
9695;BME280;4690;52.422;13.486;2022-12-17T16:00:14;102644.50;;;-0.66;80.95
9695;BME280;4690;52.422;13.486;2022-12-17T16:02:40;102651.75;;;-0.66;80.19
9695;BME280;4690;52.422;13.486;2022-12-17T16:05:06;102657.13;;;-0.66;80.56
9695;BME280;4690;52.422;13.486;2022-12-17T16:07:32;102653.44;;;-0.65;80.13
9695;BME280;4690;52.422;13.486;2022-12-17T16:09:57;102661.31;;;-0.62;80.75
9695;BME280;4690;52.422;13.486;2022-12-17T16:12:23;102656.25;;;-0.67;80.30